Portada
METAR-TAF:

METAR-TAF

Aeroports :

Duixanbe, Tadjikistan

latitud: 38-33N, longitud: 068-47E, altitud: 803 m

Observació

L'informe es va fer fa 26 minuts, a les 00:30 UTC
Vent 2 kt amb direcció variable
Temperatura 4°C
Humitat 48%
Pressió 1016 hPa
Visibilitat 10 km o més

METAR: UTDD 170030Z VRB01MPS 9999 NSC 04/M06 Q1016 R09/D NOSIG RMK QFE693/0925

Hora: 05:56 (00:56 UTC)

Pronòstic

L'informe es va fer fa 56 minuts, a les 00:00 UTC
Pronòstic vàlid del 17 a les 01 UTC al 17 a les 13 UTC
Vent 4 kt amb direcció variable
Visibilitat: 6000 m
Temporalment
l' 17 a les 01 UTC al 17 a les 07 UTC
Visibilitat: 3100 m
boirina, fum

TAF: UTDD 170000Z 1701/1713 VRB02MPS 6000 NSC TEMPO 1701/1707 3100 BR FU

Observacions i pronòstics meteorològics de més de 4000 aeroports (METAR i TAF).

Les estacions disponibles són els punts grocs i vermells al mapa.

Posi el ratolí al punt desitjat per veure el nom de l'estació.

Feu clic per veure les observacions i els pronòstics meteorològics.

Per canviar el mapa: feu clic els botons verds amb una creu de color negre per apropar; al botó verd amb un guió per allunyar la imatge; o en les fletxes verdes per a mapes adjacents.


METAR-TAF: